createdAt,value
2017-10-29T00:00:42.691Z,1008.38
2017-10-29T00:01:42.678Z,1008.32
2017-10-29T00:02:42.664Z,1008.32
2017-10-29T00:03:42.653Z,1008.26
2017-10-29T00:04:42.638Z,1008.27
2017-10-29T00:05:42.623Z,1008.27
2017-10-29T00:06:42.611Z,1008.23
2017-10-29T00:07:42.596Z,1008.18
2017-10-29T00:08:42.582Z,1008.19
2017-10-29T00:09:42.568Z,1008.11
2017-10-29T00:10:42.555Z,1008.09
2017-10-29T00:11:42.542Z,1008.08
2017-10-29T00:12:42.527Z,1008.03
2017-10-29T00:13:42.514Z,1008.06
2017-10-29T00:14:42.501Z,1008.09
2017-10-29T00:15:42.488Z,1007.99
2017-10-29T00:16:42.473Z,1007.96
2017-10-29T00:17:42.460Z,1007.92
2017-10-29T00:18:42.446Z,1007.92
2017-10-29T00:19:42.433Z,1007.92
2017-10-29T00:20:42.419Z,1007.94
2017-10-29T00:21:42.405Z,1007.92
2017-10-29T00:22:42.392Z,1007.89
2017-10-29T00:23:42.378Z,1007.91
2017-10-29T00:24:42.364Z,1007.93
2017-10-29T00:25:42.351Z,1007.92
2017-10-29T00:26:42.337Z,1007.91
2017-10-29T00:27:42.324Z,1008.00
2017-10-29T00:28:42.309Z,1007.98
2017-10-29T00:29:42.300Z,1007.91
2017-10-29T00:30:42.283Z,1007.96
2017-10-29T00:31:42.269Z,1007.96
2017-10-29T00:32:42.256Z,1007.95
2017-10-29T00:33:42.241Z,1007.97
2017-10-29T00:34:42.228Z,1007.88
2017-10-29T00:35:42.215Z,1007.87
2017-10-29T00:36:42.199Z,1007.85
2017-10-29T00:37:42.187Z,1007.81
2017-10-29T00:38:42.174Z,1007.81
2017-10-29T00:39:42.161Z,1007.81
2017-10-29T00:40:42.146Z,1007.73
2017-10-29T00:41:42.133Z,1007.73
2017-10-29T00:42:42.119Z,1007.68
2017-10-29T00:43:42.106Z,1007.75
2017-10-29T00:44:42.091Z,1007.75
2017-10-29T00:45:42.078Z,1007.67
2017-10-29T00:46:42.064Z,1007.70
2017-10-29T00:47:42.051Z,1007.72
2017-10-29T00:48:42.037Z,1007.77
2017-10-29T00:49:42.025Z,1007.74
2017-10-29T00:50:42.010Z,1007.77
2017-10-29T00:51:41.997Z,1007.67
2017-10-29T00:52:41.984Z,1007.76
2017-10-29T00:53:41.972Z,1007.59
2017-10-29T00:54:41.954Z,1007.56
2017-10-29T00:55:41.942Z,1007.58
2017-10-29T00:56:41.931Z,1007.60
2017-10-29T00:57:41.914Z,1007.56
2017-10-29T00:58:41.901Z,1007.54
2017-10-29T00:59:41.887Z,1007.51
2017-10-29T01:00:41.874Z,1007.52
2017-10-29T01:01:41.865Z,1007.56
2017-10-29T01:02:41.848Z,1007.57
2017-10-29T01:03:41.833Z,1007.55
2017-10-29T01:04:41.820Z,1007.47
2017-10-29T01:05:41.805Z,1007.53
2017-10-29T01:06:41.792Z,1007.47
2017-10-29T01:07:41.780Z,1007.51
2017-10-29T01:08:41.775Z,1007.52
2017-10-29T01:09:41.750Z,1007.51
2017-10-29T01:10:41.737Z,1007.52
2017-10-29T01:11:41.723Z,1007.45
2017-10-29T01:12:41.710Z,1007.47
2017-10-29T01:13:41.694Z,1007.34
2017-10-29T01:14:41.682Z,1007.31
2017-10-29T01:15:41.669Z,1007.26
2017-10-29T01:16:41.654Z,1007.29
2017-10-29T01:17:41.667Z,1007.34
2017-10-29T01:18:41.627Z,1007.30
2017-10-29T01:19:41.615Z,1007.37
2017-10-29T01:20:41.600Z,1007.32
2017-10-29T01:21:41.587Z,1007.33
2017-10-29T01:22:41.573Z,1007.35
2017-10-29T01:23:41.563Z,1007.35
2017-10-29T01:24:41.546Z,1007.35
2017-10-29T01:25:41.532Z,1007.33
2017-10-29T01:26:41.522Z,1007.29
2017-10-29T01:27:41.505Z,1007.45
2017-10-29T01:28:41.490Z,1007.42
2017-10-29T01:29:41.477Z,1007.39
2017-10-29T01:30:41.464Z,1007.43
2017-10-29T01:31:41.450Z,1007.36
2017-10-29T01:32:41.442Z,1007.35
2017-10-29T01:33:41.422Z,1007.27
2017-10-29T01:34:41.409Z,1007.16
2017-10-29T01:35:41.395Z,1007.21
2017-10-29T01:36:41.381Z,1007.26
2017-10-29T01:37:41.367Z,1007.23
2017-10-29T01:38:41.354Z,1007.18
2017-10-29T01:39:41.341Z,1007.26
2017-10-29T01:40:41.328Z,1007.29
2017-10-29T01:41:41.313Z,1007.28
2017-10-29T01:42:41.300Z,1007.29
2017-10-29T01:43:41.287Z,1007.28
2017-10-29T01:44:41.275Z,1007.22
2017-10-29T01:45:41.258Z,1007.20
2017-10-29T01:46:41.246Z,1007.30
2017-10-29T01:47:41.233Z,1007.14
2017-10-29T01:48:41.217Z,1007.17
2017-10-29T01:49:41.204Z,1007.13
2017-10-29T01:50:41.191Z,1007.08
2017-10-29T01:51:41.180Z,1007.07
2017-10-29T01:52:41.164Z,1007.02
2017-10-29T01:53:41.150Z,1007.01
2017-10-29T01:54:41.136Z,1006.86
2017-10-29T01:55:41.122Z,1006.97
2017-10-29T01:56:41.108Z,1006.86
2017-10-29T01:57:41.095Z,1007.06
2017-10-29T01:58:41.081Z,1006.95
2017-10-29T01:59:41.068Z,1006.97
2017-10-29T02:00:41.053Z,1007.00
2017-10-29T02:01:41.040Z,1006.90
2017-10-29T02:02:41.027Z,1006.90
2017-10-29T02:03:41.013Z,1006.89
2017-10-29T02:04:40.999Z,1006.90
2017-10-29T02:05:40.985Z,1006.86
2017-10-29T02:06:40.971Z,1006.81
2017-10-29T02:07:40.959Z,1006.77
2017-10-29T02:08:40.944Z,1006.85
2017-10-29T02:09:40.931Z,1006.72
2017-10-29T02:10:40.917Z,1006.86
2017-10-29T02:11:40.904Z,1006.88
2017-10-29T02:12:40.891Z,1006.77
2017-10-29T02:13:40.875Z,1006.89
2017-10-29T02:14:40.862Z,1006.94
2017-10-29T02:15:40.849Z,1006.91
2017-10-29T02:16:40.835Z,1006.89
2017-10-29T02:17:40.821Z,1006.97
2017-10-29T02:18:40.807Z,1007.03
2017-10-29T02:19:40.794Z,1007.00
2017-10-29T02:20:40.779Z,1006.87
2017-10-29T02:21:40.766Z,1006.90
2017-10-29T02:22:40.755Z,1006.86
2017-10-29T02:23:40.739Z,1006.78
2017-10-29T02:24:40.725Z,1006.78
2017-10-29T02:25:40.713Z,1006.68
2017-10-29T02:26:40.699Z,1006.71
2017-10-29T02:27:40.688Z,1006.61
2017-10-29T02:28:40.670Z,1006.56
2017-10-29T02:29:40.657Z,1006.54
2017-10-29T02:30:40.643Z,1006.46
2017-10-29T02:31:40.630Z,1006.34
2017-10-29T02:32:40.616Z,1006.45
2017-10-29T02:33:40.604Z,1006.47
2017-10-29T02:34:40.589Z,1006.39
2017-10-29T02:35:40.579Z,1006.46
2017-10-29T02:36:40.564Z,1006.49
2017-10-29T02:37:40.548Z,1006.46
2017-10-29T02:38:40.534Z,1006.45
2017-10-29T02:39:40.520Z,1006.49
2017-10-29T02:40:40.507Z,1006.46
2017-10-29T02:41:40.499Z,1006.49
2017-10-29T02:42:40.479Z,1006.43
2017-10-29T02:43:40.466Z,1006.46
2017-10-29T02:44:40.452Z,1006.48
2017-10-29T02:45:40.441Z,1006.47
2017-10-29T02:46:40.449Z,1006.54
2017-10-29T02:47:40.412Z,1006.49
2017-10-29T02:48:40.404Z,1006.44
2017-10-29T02:49:40.383Z,1006.40
2017-10-29T02:50:40.369Z,1006.49
2017-10-29T02:51:40.357Z,1006.40
2017-10-29T02:52:40.342Z,1006.49
2017-10-29T02:53:40.329Z,1006.58
2017-10-29T02:54:40.315Z,1006.48
2017-10-29T02:55:40.302Z,1006.33
2017-10-29T02:56:40.286Z,1006.39
2017-10-29T02:57:40.274Z,1006.46
2017-10-29T02:58:40.260Z,1006.46
2017-10-29T02:59:40.248Z,1006.49
2017-10-29T03:00:40.232Z,1006.43
2017-10-29T03:01:40.219Z,1006.47
2017-10-29T03:02:40.206Z,1006.50
2017-10-29T03:03:40.192Z,1006.52
2017-10-29T03:04:40.178Z,1006.59
2017-10-29T03:05:40.165Z,1006.59
2017-10-29T03:06:40.150Z,1006.60
2017-10-29T03:07:40.137Z,1006.61
2017-10-29T03:08:40.123Z,1006.66
2017-10-29T03:09:40.110Z,1006.74
2017-10-29T03:10:40.096Z,1006.81
2017-10-29T03:11:40.083Z,1006.87
2017-10-29T03:12:40.068Z,1007.06
2017-10-29T03:13:40.055Z,1007.19
2017-10-29T03:14:40.041Z,1007.19
2017-10-29T03:15:40.027Z,1007.13
2017-10-29T03:16:40.018Z,1007.27
2017-10-29T03:17:40.000Z,1007.13
2017-10-29T03:18:39.987Z,1007.29
2017-10-29T03:19:39.973Z,1007.30
2017-10-29T03:20:39.960Z,1007.21
2017-10-29T03:21:39.945Z,1007.29
2017-10-29T03:22:39.932Z,1007.28
2017-10-29T03:23:39.918Z,1007.30
2017-10-29T03:24:39.905Z,1007.34
2017-10-29T03:25:39.890Z,1007.32
2017-10-29T03:26:39.877Z,1007.34
2017-10-29T03:27:39.863Z,1007.37
2017-10-29T03:28:39.849Z,1007.30
2017-10-29T03:29:39.835Z,1007.22
2017-10-29T03:30:39.823Z,1007.34
2017-10-29T03:31:39.808Z,1007.29
2017-10-29T03:32:39.794Z,1007.31
2017-10-29T03:33:39.781Z,1007.14
2017-10-29T03:34:39.767Z,1007.20
2017-10-29T03:35:39.754Z,1007.23
2017-10-29T03:36:39.742Z,1007.29
2017-10-29T03:37:39.726Z,1007.42
2017-10-29T03:38:39.712Z,1007.42
2017-10-29T03:39:39.698Z,1007.50
2017-10-29T03:40:39.713Z,1007.59
2017-10-29T03:41:39.671Z,1007.74
2017-10-29T03:42:39.658Z,1007.83
2017-10-29T03:43:39.643Z,1007.85
2017-10-29T03:44:39.629Z,1007.76
2017-10-29T03:45:39.616Z,1008.05
2017-10-29T03:46:39.602Z,1007.99
2017-10-29T03:47:39.589Z,1008.01
2017-10-29T03:48:39.575Z,1007.99
2017-10-29T03:49:39.561Z,1008.09
2017-10-29T03:50:39.547Z,1008.28
2017-10-29T03:51:39.535Z,1008.22
2017-10-29T03:52:39.520Z,1008.17
2017-10-29T03:53:39.506Z,1008.21
2017-10-29T03:54:39.493Z,1008.26
2017-10-29T03:55:39.479Z,1008.32
2017-10-29T03:56:39.465Z,1008.26
2017-10-29T03:57:39.451Z,1008.34
2017-10-29T03:58:39.437Z,1008.42
2017-10-29T03:59:39.425Z,1008.45
2017-10-29T04:00:39.410Z,1008.42
2017-10-29T04:01:39.396Z,1008.44
2017-10-29T04:02:39.383Z,1008.38
2017-10-29T04:03:39.370Z,1008.35
2017-10-29T04:04:39.355Z,1008.50
2017-10-29T04:05:39.342Z,1008.64
2017-10-29T04:06:39.328Z,1008.53
2017-10-29T04:07:39.315Z,1008.46
2017-10-29T04:08:39.300Z,1008.42
2017-10-29T04:09:39.287Z,1008.40
2017-10-29T04:10:39.273Z,1008.40
2017-10-29T04:11:39.261Z,1008.42
2017-10-29T04:12:39.245Z,1008.48
2017-10-29T04:13:39.232Z,1008.45
2017-10-29T04:14:39.230Z,1008.41
2017-10-29T04:15:39.205Z,1008.41
2017-10-29T04:16:39.190Z,1008.40
2017-10-29T04:17:39.177Z,1008.31
2017-10-29T04:18:39.164Z,1008.32
2017-10-29T04:19:39.150Z,1008.28
2017-10-29T04:20:39.136Z,1008.30
2017-10-29T04:21:39.123Z,1008.37
2017-10-29T04:22:39.109Z,1008.34
2017-10-29T04:23:39.096Z,1008.41
2017-10-29T04:24:39.081Z,1008.39
2017-10-29T04:25:39.068Z,1008.35
2017-10-29T04:26:39.056Z,1008.40
2017-10-29T04:27:39.041Z,1008.39
2017-10-29T04:28:39.026Z,1008.40
2017-10-29T04:29:39.013Z,1008.45
2017-10-29T04:30:38.999Z,1008.45
2017-10-29T04:31:38.986Z,1008.47
2017-10-29T04:32:38.973Z,1008.50
2017-10-29T04:33:38.958Z,1008.52
2017-10-29T04:34:38.944Z,1008.51
2017-10-29T04:35:38.931Z,1008.48
2017-10-29T04:36:38.917Z,1008.51
2017-10-29T04:37:38.904Z,1008.51
2017-10-29T04:38:38.890Z,1008.49
2017-10-29T04:39:38.897Z,1008.57
2017-10-29T04:40:38.862Z,1008.54
2017-10-29T04:41:38.848Z,1008.54
2017-10-29T04:42:38.836Z,1008.57
2017-10-29T04:43:38.821Z,1008.62
2017-10-29T04:44:38.808Z,1008.70
2017-10-29T04:45:38.793Z,1008.70
2017-10-29T04:46:38.780Z,1008.63
2017-10-29T04:47:38.768Z,1008.73
2017-10-29T04:48:38.753Z,1008.75
2017-10-29T04:49:38.739Z,1008.71
2017-10-29T04:50:38.726Z,1008.84
2017-10-29T04:51:38.713Z,1008.86
2017-10-29T04:52:38.698Z,1008.83
2017-10-29T04:53:38.684Z,1008.79
2017-10-29T04:54:38.671Z,1008.81
2017-10-29T04:55:38.657Z,1008.84
2017-10-29T04:56:38.643Z,1008.83
2017-10-29T04:57:38.629Z,1008.91
2017-10-29T04:58:38.616Z,1008.93
2017-10-29T04:59:38.603Z,1008.97
2017-10-29T05:00:38.587Z,1008.99
2017-10-29T05:01:38.575Z,1008.98
2017-10-29T05:02:38.561Z,1008.97
2017-10-29T05:03:38.548Z,1008.96
2017-10-29T05:04:38.534Z,1009.10
2017-10-29T05:05:38.520Z,1009.02
2017-10-29T05:06:38.507Z,1009.01
2017-10-29T05:07:38.493Z,1009.14
2017-10-29T05:08:38.480Z,1009.18
2017-10-29T05:09:38.464Z,1009.19
2017-10-29T05:10:38.451Z,1009.25
2017-10-29T05:11:38.437Z,1009.34
2017-10-29T05:12:38.423Z,1009.23
2017-10-29T05:13:38.409Z,1009.31
2017-10-29T05:14:38.396Z,1009.39
2017-10-29T05:15:38.383Z,1009.34
2017-10-29T05:16:38.368Z,1009.42
2017-10-29T05:17:38.355Z,1009.40
2017-10-29T05:18:38.340Z,1009.40
2017-10-29T05:19:38.327Z,1009.36
2017-10-29T05:20:38.312Z,1009.44
2017-10-29T05:21:38.300Z,1009.49
2017-10-29T05:22:38.286Z,1009.45
2017-10-29T05:23:38.272Z,1009.50
2017-10-29T05:24:38.258Z,1009.46
2017-10-29T05:25:38.250Z,1009.50
2017-10-29T05:26:38.231Z,1009.53
2017-10-29T05:27:38.216Z,1009.47
2017-10-29T05:28:38.203Z,1009.49
2017-10-29T05:29:38.193Z,1009.49
2017-10-29T05:30:38.176Z,1009.47
2017-10-29T05:31:38.161Z,1009.60
2017-10-29T05:32:38.148Z,1009.63
2017-10-29T05:33:38.134Z,1009.73
2017-10-29T05:34:38.121Z,1009.65
2017-10-29T05:35:38.107Z,1009.75
2017-10-29T05:36:38.095Z,1009.76
2017-10-29T05:37:38.079Z,1009.76
2017-10-29T05:38:38.065Z,1009.63
2017-10-29T05:39:38.051Z,1009.71
2017-10-29T05:40:38.037Z,1009.74
2017-10-29T05:41:38.024Z,1009.80
2017-10-29T05:42:38.009Z,1009.83
2017-10-29T05:43:37.996Z,1009.76
2017-10-29T05:44:37.982Z,1009.66
2017-10-29T05:45:37.968Z,1009.77
2017-10-29T05:46:37.955Z,1009.77
2017-10-29T05:47:37.941Z,1009.81
2017-10-29T05:48:37.926Z,1009.83
2017-10-29T05:49:37.914Z,1009.85
2017-10-29T05:50:37.899Z,1009.93
2017-10-29T05:51:37.886Z,1009.86
2017-10-29T05:52:37.879Z,1009.89
2017-10-29T05:53:37.857Z,1009.98
2017-10-29T05:54:37.845Z,1009.99
2017-10-29T05:55:37.830Z,1009.96
2017-10-29T05:56:37.816Z,1010.00
2017-10-29T05:57:37.802Z,1010.06
2017-10-29T05:58:37.788Z,1010.07
2017-10-29T05:59:37.774Z,1010.07
2017-10-29T06:00:37.760Z,1010.10
2017-10-29T06:01:37.747Z,1010.16
2017-10-29T06:02:37.733Z,1010.14
2017-10-29T06:03:37.720Z,1010.12
2017-10-29T06:04:37.705Z,1010.15
2017-10-29T06:05:37.692Z,1010.25
2017-10-29T06:06:37.678Z,1010.31
2017-10-29T06:07:37.664Z,1010.31
2017-10-29T06:08:37.650Z,1010.36
2017-10-29T06:09:37.636Z,1010.36
2017-10-29T06:10:37.655Z,1010.44
2017-10-29T06:11:37.610Z,1010.42
2017-10-29T06:12:37.594Z,1010.39
2017-10-29T06:13:37.584Z,1010.46
2017-10-29T06:14:37.567Z,1010.47
2017-10-29T06:15:37.553Z,1010.49
2017-10-29T06:16:37.539Z,1010.54
2017-10-29T06:17:37.525Z,1010.53
2017-10-29T06:18:37.511Z,1010.59
2017-10-29T06:19:37.498Z,1010.57
2017-10-29T06:20:37.483Z,1010.63
2017-10-29T06:21:37.470Z,1010.66
2017-10-29T06:22:37.456Z,1010.64
2017-10-29T06:23:37.442Z,1010.70
2017-10-29T06:24:37.428Z,1010.71
2017-10-29T06:25:37.415Z,1010.78
2017-10-29T06:26:37.401Z,1010.73
2017-10-29T06:27:37.386Z,1010.77
2017-10-29T06:28:37.373Z,1010.76
2017-10-29T06:29:37.359Z,1010.87
2017-10-29T06:30:37.345Z,1010.82
2017-10-29T06:31:37.332Z,1010.89
2017-10-29T06:32:37.317Z,1011.00
2017-10-29T06:33:37.303Z,1011.04
2017-10-29T06:34:37.290Z,1010.98
2017-10-29T06:35:37.276Z,1011.03
2017-10-29T06:36:37.261Z,1011.12
2017-10-29T06:37:37.260Z,1011.15
2017-10-29T06:38:37.234Z,1011.15
2017-10-29T06:39:37.220Z,1011.18
2017-10-29T06:40:37.231Z,1011.12
2017-10-29T06:41:37.191Z,1011.24
2017-10-29T06:42:37.178Z,1011.25
2017-10-29T06:43:37.165Z,1011.28
2017-10-29T06:44:37.149Z,1011.29
2017-10-29T06:45:37.136Z,1011.27
2017-10-29T06:46:37.123Z,1011.31
2017-10-29T06:47:37.108Z,1011.34
2017-10-29T06:48:37.095Z,1011.37
2017-10-29T06:49:37.081Z,1011.34
2017-10-29T06:50:37.067Z,1011.40
2017-10-29T06:51:37.053Z,1011.42
2017-10-29T06:52:37.039Z,1011.42
2017-10-29T06:53:37.025Z,1011.48
2017-10-29T06:54:37.012Z,1011.58
2017-10-29T06:55:36.997Z,1011.51
2017-10-29T06:56:36.982Z,1011.60
2017-10-29T06:57:36.970Z,1011.58
2017-10-29T06:58:36.956Z,1011.65
2017-10-29T06:59:36.947Z,1011.65
2017-10-29T07:00:36.928Z,1011.70
2017-10-29T07:01:36.918Z,1011.73
2017-10-29T07:02:36.904Z,1011.68
2017-10-29T07:03:36.887Z,1011.80
2017-10-29T07:04:36.872Z,1011.80
2017-10-29T07:05:36.859Z,1011.83
2017-10-29T07:06:36.845Z,1011.80
2017-10-29T07:07:36.831Z,1011.87
2017-10-29T07:08:36.821Z,1011.98
2017-10-29T07:09:36.803Z,1011.92
2017-10-29T07:10:36.790Z,1011.99
2017-10-29T07:11:36.778Z,1012.02
2017-10-29T07:12:36.762Z,1012.03
2017-10-29T07:13:36.747Z,1012.12
2017-10-29T07:14:36.733Z,1012.11
2017-10-29T07:15:36.720Z,1012.15
2017-10-29T07:16:36.706Z,1012.17
2017-10-29T07:17:36.692Z,1012.21
2017-10-29T07:18:36.678Z,1012.21
2017-10-29T07:19:36.672Z,1012.24
2017-10-29T07:20:36.650Z,1012.24
2017-10-29T07:21:36.637Z,1012.26
2017-10-29T07:22:36.623Z,1012.30
2017-10-29T07:23:36.609Z,1012.24
2017-10-29T07:24:36.596Z,1012.28
2017-10-29T07:25:36.582Z,1012.35
2017-10-29T07:26:36.567Z,1012.35
2017-10-29T07:27:36.554Z,1012.41
2017-10-29T07:28:36.539Z,1012.41
2017-10-29T07:29:36.526Z,1012.43
2017-10-29T07:30:36.512Z,1012.48
2017-10-29T07:31:36.498Z,1012.51
2017-10-29T07:32:36.484Z,1012.55
2017-10-29T07:33:36.475Z,1012.53
2017-10-29T07:34:36.462Z,1012.55
2017-10-29T07:35:36.443Z,1012.56
2017-10-29T07:36:36.428Z,1012.58
2017-10-29T07:37:36.416Z,1012.60
2017-10-29T07:38:36.401Z,1012.52
2017-10-29T07:39:36.388Z,1012.57
2017-10-29T07:40:36.374Z,1012.59
2017-10-29T07:41:36.360Z,1012.60
2017-10-29T07:42:36.346Z,1012.59
2017-10-29T07:43:36.333Z,1012.67
2017-10-29T07:44:36.319Z,1012.60
2017-10-29T07:45:36.305Z,1012.62
2017-10-29T07:46:36.291Z,1012.68
2017-10-29T07:47:36.277Z,1012.70
2017-10-29T07:48:36.263Z,1012.76
2017-10-29T07:49:36.249Z,1012.77
2017-10-29T07:50:36.236Z,1012.81
2017-10-29T07:51:36.223Z,1012.85
2017-10-29T07:52:36.208Z,1012.83
2017-10-29T07:53:36.193Z,1012.84
2017-10-29T07:54:36.181Z,1012.92
2017-10-29T07:55:36.168Z,1012.88
2017-10-29T07:56:36.152Z,1012.84
2017-10-29T07:57:36.139Z,1012.88
2017-10-29T07:58:36.181Z,1012.91
2017-10-29T07:59:36.113Z,1012.91
2017-10-29T08:00:36.098Z,1013.02
2017-10-29T08:01:36.085Z,1013.05
2017-10-29T08:02:36.071Z,1013.05
2017-10-29T08:03:36.058Z,1013.13
2017-10-29T08:04:36.044Z,1013.14
2017-10-29T08:05:36.030Z,1013.17
2017-10-29T08:06:36.017Z,1013.21
2017-10-29T08:07:36.003Z,1013.14
2017-10-29T08:08:35.990Z,1013.25
2017-10-29T08:09:35.976Z,1013.26
2017-10-29T08:10:35.963Z,1013.31
2017-10-29T08:11:35.949Z,1013.29
2017-10-29T08:12:35.934Z,1013.31
2017-10-29T08:13:35.921Z,1013.39
2017-10-29T08:14:35.908Z,1013.36
2017-10-29T08:15:35.895Z,1013.40
2017-10-29T08:16:35.880Z,1013.43
2017-10-29T08:17:35.867Z,1013.47
2017-10-29T08:18:35.859Z,1013.54
2017-10-29T08:19:35.991Z,1013.53
2017-10-29T08:20:35.826Z,1013.55
2017-10-29T08:21:35.814Z,1013.59
2017-10-29T08:22:35.800Z,1013.55
2017-10-29T08:23:35.787Z,1013.65
2017-10-29T08:24:35.773Z,1013.66
2017-10-29T08:25:35.759Z,1013.63
2017-10-29T08:26:35.747Z,1013.69
2017-10-29T08:27:35.733Z,1013.74
2017-10-29T08:28:35.722Z,1013.70
2017-10-29T08:29:35.705Z,1013.67
2017-10-29T08:30:35.693Z,1013.71
2017-10-29T08:31:35.680Z,1013.79
2017-10-29T08:32:35.666Z,1013.80
2017-10-29T08:33:35.682Z,1013.83
2017-10-29T08:34:35.640Z,1013.74
2017-10-29T08:35:35.627Z,1013.83
2017-10-29T08:36:35.615Z,1013.81
2017-10-29T08:37:35.605Z,1013.88
2017-10-29T08:38:35.587Z,1013.87
2017-10-29T08:39:35.575Z,1013.86
2017-10-29T08:40:35.561Z,1013.83
2017-10-29T08:41:35.547Z,1013.84
2017-10-29T08:42:35.534Z,1013.85
2017-10-29T08:43:35.521Z,1013.86
2017-10-29T08:44:35.506Z,1013.95
2017-10-29T08:45:35.494Z,1013.93
2017-10-29T08:46:35.483Z,1013.97
2017-10-29T08:47:35.469Z,1014.00
2017-10-29T08:48:35.454Z,1013.95
2017-10-29T08:49:35.543Z,1013.95
2017-10-29T08:50:35.429Z,1014.03
2017-10-29T08:51:35.426Z,1013.97
2017-10-29T08:52:35.403Z,1013.95
2017-10-29T08:53:35.390Z,1013.95
2017-10-29T08:54:35.378Z,1013.97
2017-10-29T08:55:35.365Z,1014.08
2017-10-29T08:56:35.351Z,1014.09
2017-10-29T08:57:35.346Z,1014.15
2017-10-29T08:58:35.335Z,1014.11
2017-10-29T08:59:35.314Z,1014.18
2017-10-29T09:00:35.300Z,1014.18
2017-10-29T09:01:35.287Z,1014.11
2017-10-29T09:02:35.275Z,1014.14
2017-10-29T09:03:35.262Z,1014.17
2017-10-29T09:04:35.249Z,1014.23
2017-10-29T09:05:35.236Z,1014.19
2017-10-29T09:06:35.224Z,1014.28
2017-10-29T09:07:35.215Z,1014.29
2017-10-29T09:08:35.198Z,1014.26
2017-10-29T09:09:35.185Z,1014.32
2017-10-29T09:10:35.173Z,1014.36
2017-10-29T09:11:35.161Z,1014.35
2017-10-29T09:12:35.147Z,1014.35
2017-10-29T09:13:35.136Z,1014.37
2017-10-29T09:14:35.123Z,1014.40
2017-10-29T09:15:35.110Z,1014.44
2017-10-29T09:16:35.097Z,1014.52
2017-10-29T09:17:35.088Z,1014.51
2017-10-29T09:18:35.072Z,1014.52
2017-10-29T09:19:35.077Z,1014.58
2017-10-29T09:20:35.047Z,1014.59
2017-10-29T09:21:35.035Z,1014.67
2017-10-29T09:22:35.023Z,1014.70
2017-10-29T09:23:35.010Z,1014.73
2017-10-29T09:24:34.997Z,1014.78
2017-10-29T09:25:34.985Z,1014.81
2017-10-29T09:26:34.975Z,1014.81
2017-10-29T09:27:34.960Z,1014.76
2017-10-29T09:28:34.947Z,1014.83
2017-10-29T09:29:34.935Z,1014.85
2017-10-29T09:30:34.922Z,1014.89
2017-10-29T09:31:34.911Z,1014.86
2017-10-29T09:32:34.897Z,1014.81
2017-10-29T09:33:34.885Z,1014.90
2017-10-29T09:34:34.872Z,1014.87
2017-10-29T09:35:34.861Z,1014.91
2017-10-29T09:36:34.847Z,1014.87
2017-10-29T09:37:34.835Z,1014.84
2017-10-29T09:38:34.823Z,1014.91
2017-10-29T09:39:34.811Z,1014.91
2017-10-29T09:40:34.798Z,1015.04
2017-10-29T09:41:34.785Z,1014.89
2017-10-29T09:42:34.772Z,1014.86
2017-10-29T09:43:34.762Z,1014.90
2017-10-29T09:44:34.750Z,1015.01
2017-10-29T09:45:34.737Z,1014.85
2017-10-29T09:46:34.725Z,1014.99
2017-10-29T09:47:34.713Z,1015.01
2017-10-29T09:48:34.700Z,1015.07
2017-10-29T09:49:34.688Z,1015.11
2017-10-29T09:50:34.677Z,1015.11
2017-10-29T09:51:34.665Z,1015.24
2017-10-29T09:52:34.652Z,1015.27
2017-10-29T09:53:34.639Z,1015.30
2017-10-29T09:54:34.629Z,1015.30
2017-10-29T09:55:34.617Z,1015.32
2017-10-29T09:56:34.604Z,1015.31
2017-10-29T09:57:34.592Z,1015.29
2017-10-29T09:58:34.580Z,1015.27
2017-10-29T09:59:34.569Z,1015.42
2017-10-29T10:00:34.555Z,1015.43
2017-10-29T10:01:34.548Z,1015.37
2017-10-29T10:02:34.532Z,1015.49
2017-10-29T10:03:34.554Z,1015.44
2017-10-29T10:04:34.509Z,1015.54
2017-10-29T10:05:34.497Z,1015.51
2017-10-29T10:06:34.485Z,1015.57
2017-10-29T10:07:34.475Z,1015.53
2017-10-29T10:08:34.462Z,1015.51
2017-10-29T10:09:34.450Z,1015.60
2017-10-29T10:10:34.439Z,1015.50
2017-10-29T10:11:34.428Z,1015.50
2017-10-29T10:12:34.415Z,1015.60
2017-10-29T10:13:34.403Z,1015.65
2017-10-29T10:14:34.392Z,1015.61
2017-10-29T10:15:34.381Z,1015.67
2017-10-29T10:16:34.367Z,1015.62
2017-10-29T10:17:34.356Z,1015.61
2017-10-29T10:18:34.347Z,1015.63
2017-10-29T10:19:34.334Z,1015.64
2017-10-29T10:20:34.321Z,1015.66
2017-10-29T10:21:34.310Z,1015.68
2017-10-29T10:22:34.297Z,1015.75
2017-10-29T10:23:34.287Z,1015.74
2017-10-29T10:24:34.274Z,1015.76
2017-10-29T10:25:34.263Z,1015.73
2017-10-29T10:26:34.251Z,1015.71
2017-10-29T10:27:34.240Z,1015.77
2017-10-29T10:28:34.226Z,1015.84
2017-10-29T10:29:34.215Z,1015.79
2017-10-29T10:30:34.204Z,1015.86
2017-10-29T10:31:34.191Z,1015.69
2017-10-29T10:32:34.181Z,1015.85
2017-10-29T10:33:34.198Z,1015.83
2017-10-29T10:34:34.157Z,1015.85
2017-10-29T10:35:34.145Z,1015.83
2017-10-29T10:36:34.135Z,1015.77
2017-10-29T10:37:34.122Z,1015.81
2017-10-29T10:38:34.111Z,1015.80
2017-10-29T10:39:34.099Z,1015.84
2017-10-29T10:40:34.086Z,1015.85
2017-10-29T10:41:34.075Z,1015.88
2017-10-29T10:42:34.066Z,1015.87
2017-10-29T10:43:34.054Z,1015.89
2017-10-29T10:44:34.044Z,1015.89
2017-10-29T10:45:34.031Z,1015.95
2017-10-29T10:46:34.021Z,1015.84
2017-10-29T10:47:34.011Z,1015.95
2017-10-29T10:48:33.999Z,1015.93
2017-10-29T10:49:33.988Z,1015.96
2017-10-29T10:50:33.978Z,1015.93
2017-10-29T10:51:33.967Z,1015.84
2017-10-29T10:52:33.956Z,1015.90
2017-10-29T10:53:33.946Z,1015.77
2017-10-29T10:54:33.936Z,1015.90
2017-10-29T10:55:33.925Z,1015.92
2017-10-29T10:56:33.914Z,1015.89
2017-10-29T10:57:33.904Z,1015.92
2017-10-29T10:58:33.894Z,1015.87
2017-10-29T10:59:33.883Z,1015.84
2017-10-29T11:00:33.871Z,1015.92
2017-10-29T11:01:33.862Z,1015.86
2017-10-29T11:02:33.851Z,1015.87
2017-10-29T11:03:33.840Z,1015.88
2017-10-29T11:04:33.829Z,1015.87
2017-10-29T11:05:33.818Z,1015.85
2017-10-29T11:06:33.810Z,1015.87
2017-10-29T11:07:33.797Z,1015.90
2017-10-29T11:08:33.785Z,1016.05
2017-10-29T11:09:33.774Z,1016.33
2017-10-29T11:10:33.764Z,1016.29
2017-10-29T11:11:33.753Z,1016.27
2017-10-29T11:12:33.742Z,1016.24
2017-10-29T11:13:33.733Z,1016.21
2017-10-29T11:14:33.720Z,1016.25
2017-10-29T11:15:33.709Z,1016.22
2017-10-29T11:16:33.696Z,1016.19
2017-10-29T11:17:33.686Z,1016.19
2017-10-29T11:18:33.675Z,1016.16
2017-10-29T11:19:33.663Z,1016.20
2017-10-29T11:20:33.652Z,1016.13
2017-10-29T11:21:33.639Z,1016.11
2017-10-29T11:22:33.629Z,1016.16
2017-10-29T11:23:33.616Z,1016.14
2017-10-29T11:24:33.605Z,1016.19
2017-10-29T11:25:33.593Z,1016.18
2017-10-29T11:26:33.611Z,1016.19
2017-10-29T11:27:33.570Z,1016.17
2017-10-29T11:28:33.566Z,1016.21
2017-10-29T11:29:33.548Z,1016.19
2017-10-29T11:30:33.537Z,1016.17
2017-10-29T11:31:33.524Z,1016.18
2017-10-29T11:32:33.512Z,1016.20
2017-10-29T11:33:33.501Z,1016.13
2017-10-29T11:34:33.489Z,1016.15
2017-10-29T11:35:33.478Z,1016.12
2017-10-29T11:36:33.489Z,1016.13
2017-10-29T11:37:33.455Z,1016.18
2017-10-29T11:38:33.444Z,1016.13
2017-10-29T11:39:33.433Z,1016.12
2017-10-29T11:40:33.421Z,1016.16
2017-10-29T11:41:33.410Z,1016.19
2017-10-29T11:42:33.399Z,1016.20
2017-10-29T11:43:33.388Z,1016.15
2017-10-29T11:44:33.377Z,1016.14
2017-10-29T11:45:33.366Z,1016.18
2017-10-29T11:46:33.355Z,1016.11
2017-10-29T11:47:33.345Z,1016.14
2017-10-29T11:48:33.333Z,1016.16
2017-10-29T11:49:33.323Z,1016.25
2017-10-29T11:50:33.312Z,1016.22
2017-10-29T11:51:33.302Z,1016.20
2017-10-29T11:52:33.292Z,1016.32
2017-10-29T11:53:33.279Z,1016.35
2017-10-29T11:54:33.269Z,1016.38
2017-10-29T11:55:33.257Z,1016.33
2017-10-29T11:56:33.247Z,1016.39
2017-10-29T11:57:33.237Z,1016.36
2017-10-29T11:58:33.225Z,1016.35
2017-10-29T11:59:33.215Z,1016.48
2017-10-29T12:00:33.203Z,1016.46
2017-10-29T12:01:33.194Z,1016.52
2017-10-29T12:02:33.182Z,1016.54
2017-10-29T12:03:33.172Z,1016.54
2017-10-29T12:04:33.165Z,1016.53
2017-10-29T12:05:33.149Z,1016.53